sensor_id;sensor_type;location;lat;lon;timestamp;P1;durP1;ratioP1;P2;durP2;ratioP2
65871;SDS011;52653;50.080;21.992;2023-02-11T00:01:12;39.80;;;25.50;;
65871;SDS011;52653;50.080;21.992;2023-02-11T00:07:03;36.50;;;24.20;;
65871;SDS011;52653;50.080;21.992;2023-02-11T00:09:57;43.90;;;30.10;;
65871;SDS011;52653;50.080;21.992;2023-02-11T00:12:51;45.20;;;29.70;;
65871;SDS011;52653;50.080;21.992;2023-02-11T00:15:44;40.50;;;26.30;;
65871;SDS011;52653;50.080;21.992;2023-02-11T00:18:39;44.00;;;27.50;;
65871;SDS011;52653;50.080;21.992;2023-02-11T00:21:33;41.20;;;26.60;;
65871;SDS011;52653;50.080;21.992;2023-02-11T00:24:25;43.40;;;28.80;;
65871;SDS011;52653;50.080;21.992;2023-02-11T00:27:20;44.50;;;29.10;;
65871;SDS011;52653;50.080;21.992;2023-02-11T00:30:13;40.30;;;27.30;;
65871;SDS011;52653;50.080;21.992;2023-02-11T00:33:06;42.80;;;27.90;;
65871;SDS011;52653;50.080;21.992;2023-02-11T00:36:02;44.40;;;28.50;;
65871;SDS011;52653;50.080;21.992;2023-02-11T00:38:59;45.80;;;30.00;;
65871;SDS011;52653;50.080;21.992;2023-02-11T00:41:52;41.30;;;28.90;;
65871;SDS011;52653;50.080;21.992;2023-02-11T00:44:45;42.10;;;27.70;;
65871;SDS011;52653;50.080;21.992;2023-02-11T00:47:31;41.30;;;26.50;;
65871;SDS011;52653;50.080;21.992;2023-02-11T00:50:25;40.80;;;25.80;;
65871;SDS011;52653;50.080;21.992;2023-02-11T00:53:18;37.10;;;24.80;;
65871;SDS011;52653;50.080;21.992;2023-02-11T00:56:10;40.30;;;26.90;;
65871;SDS011;52653;50.080;21.992;2023-02-11T00:59:03;39.60;;;27.50;;
65871;SDS011;52653;50.080;21.992;2023-02-11T01:01:57;46.30;;;29.20;;
65871;SDS011;52653;50.080;21.992;2023-02-11T01:04:49;41.20;;;26.30;;
65871;SDS011;52653;50.080;21.992;2023-02-11T01:07:42;41.10;;;26.40;;
65871;SDS011;52653;50.080;21.992;2023-02-11T01:10:36;37.00;;;25.80;;
65871;SDS011;52653;50.080;21.992;2023-02-11T01:13:31;39.70;;;26.80;;
65871;SDS011;52653;50.080;21.992;2023-02-11T01:16:25;41.30;;;26.30;;
65871;SDS011;52653;50.080;21.992;2023-02-11T01:19:18;39.20;;;25.10;;
65871;SDS011;52653;50.080;21.992;2023-02-11T01:22:11;39.30;;;25.60;;
65871;SDS011;52653;50.080;21.992;2023-02-11T01:25:04;41.00;;;25.70;;
65871;SDS011;52653;50.080;21.992;2023-02-11T01:27:57;43.20;;;26.60;;
65871;SDS011;52653;50.080;21.992;2023-02-11T01:30:44;40.30;;;24.50;;
65871;SDS011;52653;50.080;21.992;2023-02-11T01:33:37;39.30;;;24.40;;
65871;SDS011;52653;50.080;21.992;2023-02-11T01:36:30;33.50;;;21.90;;
65871;SDS011;52653;50.080;21.992;2023-02-11T01:39:23;36.90;;;24.30;;
65871;SDS011;52653;50.080;21.992;2023-02-11T01:42:17;38.50;;;24.60;;
65871;SDS011;52653;50.080;21.992;2023-02-11T01:48:44;36.20;;;24.40;;
65871;SDS011;52653;50.080;21.992;2023-02-11T01:51:42;39.30;;;25.50;;
65871;SDS011;52653;50.080;21.992;2023-02-11T01:54:39;37.20;;;23.90;;
65871;SDS011;52653;50.080;21.992;2023-02-11T01:57:54;40.30;;;25.80;;
65871;SDS011;52653;50.080;21.992;2023-02-11T02:00:51;39.30;;;24.70;;
65871;SDS011;52653;50.080;21.992;2023-02-11T02:03:46;39.80;;;25.30;;
65871;SDS011;52653;50.080;21.992;2023-02-11T02:06:43;35.80;;;24.50;;
65871;SDS011;52653;50.080;21.992;2023-02-11T02:09:41;41.00;;;24.60;;
65871;SDS011;52653;50.080;21.992;2023-02-11T02:12:46;35.80;;;24.30;;
65871;SDS011;52653;50.080;21.992;2023-02-11T02:15:31;37.60;;;23.20;;
65871;SDS011;52653;50.080;21.992;2023-02-11T02:18:30;38.00;;;23.60;;
65871;SDS011;52653;50.080;21.992;2023-02-11T02:21:43;37.60;;;22.80;;
65871;SDS011;52653;50.080;21.992;2023-02-11T02:24:59;36.80;;;23.80;;
65871;SDS011;52653;50.080;21.992;2023-02-11T02:28:14;38.60;;;25.00;;
65871;SDS011;52653;50.080;21.992;2023-02-11T02:31:31;35.60;;;23.80;;
65871;SDS011;52653;50.080;21.992;2023-02-11T02:34:43;36.00;;;24.20;;
65871;SDS011;52653;50.080;21.992;2023-02-11T02:37:41;40.00;;;24.50;;
65871;SDS011;52653;50.080;21.992;2023-02-11T02:40:45;40.00;;;25.00;;
65871;SDS011;52653;50.080;21.992;2023-02-11T02:43:45;40.10;;;25.70;;
65871;SDS011;52653;50.080;21.992;2023-02-11T02:46:33;40.20;;;25.30;;
65871;SDS011;52653;50.080;21.992;2023-02-11T02:49:26;37.60;;;24.70;;
65871;SDS011;52653;50.080;21.992;2023-02-11T02:52:25;38.90;;;25.50;;
65871;SDS011;52653;50.080;21.992;2023-02-11T02:55:32;40.20;;;26.70;;
65871;SDS011;52653;50.080;21.992;2023-02-11T02:58:59;39.30;;;25.50;;
65871;SDS011;52653;50.080;21.992;2023-02-11T03:02:12;40.90;;;26.60;;
65871;SDS011;52653;50.080;21.992;2023-02-11T03:05:05;41.70;;;27.00;;
65871;SDS011;52653;50.080;21.992;2023-02-11T03:08:20;40.80;;;27.30;;
65871;SDS011;52653;50.080;21.992;2023-02-11T03:11:19;40.40;;;26.50;;
65871;SDS011;52653;50.080;21.992;2023-02-11T03:14:14;43.30;;;28.10;;
65871;SDS011;52653;50.080;21.992;2023-02-11T03:17:09;39.70;;;25.50;;
65871;SDS011;52653;50.080;21.992;2023-02-11T03:20:04;41.50;;;25.30;;
65871;SDS011;52653;50.080;21.992;2023-02-11T03:22:56;39.90;;;26.00;;
65871;SDS011;52653;50.080;21.992;2023-02-11T03:25:56;40.50;;;26.10;;
65871;SDS011;52653;50.080;21.992;2023-02-11T03:29:03;43.00;;;26.60;;
65871;SDS011;52653;50.080;21.992;2023-02-11T03:32:00;40.70;;;26.50;;
65871;SDS011;52653;50.080;21.992;2023-02-11T03:34:58;44.60;;;27.80;;
65871;SDS011;52653;50.080;21.992;2023-02-11T03:37:54;43.20;;;26.80;;
65871;SDS011;52653;50.080;21.992;2023-02-11T03:40:50;41.40;;;27.20;;
65871;SDS011;52653;50.080;21.992;2023-02-11T03:43:47;41.90;;;27.30;;
65871;SDS011;52653;50.080;21.992;2023-02-11T03:46:46;41.80;;;28.20;;
65871;SDS011;52653;50.080;21.992;2023-02-11T03:49:31;43.00;;;27.90;;
65871;SDS011;52653;50.080;21.992;2023-02-11T03:52:25;43.90;;;27.50;;
65871;SDS011;52653;50.080;21.992;2023-02-11T03:55:12;44.30;;;27.60;;
65871;SDS011;52653;50.080;21.992;2023-02-11T03:58:08;44.80;;;29.40;;
65871;SDS011;52653;50.080;21.992;2023-02-11T04:01:01;46.00;;;28.80;;
65871;SDS011;52653;50.080;21.992;2023-02-11T04:03:58;45.90;;;27.90;;
65871;SDS011;52653;50.080;21.992;2023-02-11T04:06:44;43.70;;;25.50;;
65871;SDS011;52653;50.080;21.992;2023-02-11T04:09:37;40.90;;;25.90;;
65871;SDS011;52653;50.080;21.992;2023-02-11T04:12:30;44.60;;;27.70;;
65871;SDS011;52653;50.080;21.992;2023-02-11T04:15:23;43.80;;;27.20;;
65871;SDS011;52653;50.080;21.992;2023-02-11T04:18:16;44.00;;;27.50;;
65871;SDS011;52653;50.080;21.992;2023-02-11T04:20:56;43.50;;;27.90;;
65871;SDS011;52653;50.080;21.992;2023-02-11T04:23:49;42.50;;;26.00;;
65871;SDS011;52653;50.080;21.992;2023-02-11T04:26:42;44.50;;;27.60;;
65871;SDS011;52653;50.080;21.992;2023-02-11T04:29:35;43.30;;;28.00;;
65871;SDS011;52653;50.080;21.992;2023-02-11T04:32:28;45.50;;;28.70;;
65871;SDS011;52653;50.080;21.992;2023-02-11T04:35:21;43.50;;;28.90;;
65871;SDS011;52653;50.080;21.992;2023-02-11T04:38:14;42.50;;;29.60;;
65871;SDS011;52653;50.080;21.992;2023-02-11T04:41:07;44.60;;;28.40;;
65871;SDS011;52653;50.080;21.992;2023-02-11T04:44:00;44.50;;;28.90;;
65871;SDS011;52653;50.080;21.992;2023-02-11T04:46:53;42.40;;;27.50;;
65871;SDS011;52653;50.080;21.992;2023-02-11T04:49:46;42.20;;;27.20;;
65871;SDS011;52653;50.080;21.992;2023-02-11T04:52:38;44.90;;;27.40;;
65871;SDS011;52653;50.080;21.992;2023-02-11T04:55:31;43.50;;;25.80;;
65871;SDS011;52653;50.080;21.992;2023-02-11T04:58:24;43.60;;;26.70;;
65871;SDS011;52653;50.080;21.992;2023-02-11T05:01:17;43.90;;;27.20;;
65871;SDS011;52653;50.080;21.992;2023-02-11T05:04:11;42.00;;;27.40;;
65871;SDS011;52653;50.080;21.992;2023-02-11T05:07:04;43.40;;;27.50;;
65871;SDS011;52653;50.080;21.992;2023-02-11T05:09:56;46.00;;;29.40;;
65871;SDS011;52653;50.080;21.992;2023-02-11T05:12:49;45.70;;;28.80;;
65871;SDS011;52653;50.080;21.992;2023-02-11T05:15:45;44.50;;;28.40;;
65871;SDS011;52653;50.080;21.992;2023-02-11T05:18:39;42.60;;;27.20;;
65871;SDS011;52653;50.080;21.992;2023-02-11T05:21:33;41.80;;;27.00;;
65871;SDS011;52653;50.080;21.992;2023-02-11T05:24:26;43.70;;;27.20;;
65871;SDS011;52653;50.080;21.992;2023-02-11T05:27:20;44.30;;;28.80;;
65871;SDS011;52653;50.080;21.992;2023-02-11T05:30:13;43.50;;;27.00;;
65871;SDS011;52653;50.080;21.992;2023-02-11T05:33:06;42.40;;;27.40;;
65871;SDS011;52653;50.080;21.992;2023-02-11T05:35:59;45.40;;;29.10;;
65871;SDS011;52653;50.080;21.992;2023-02-11T05:38:54;43.90;;;28.00;;
65871;SDS011;52653;50.080;21.992;2023-02-11T05:41:47;42.80;;;27.10;;
65871;SDS011;52653;50.080;21.992;2023-02-11T05:44:40;42.10;;;27.10;;
65871;SDS011;52653;50.080;21.992;2023-02-11T05:47:26;43.00;;;26.70;;
65871;SDS011;52653;50.080;21.992;2023-02-11T05:50:11;43.40;;;27.50;;
65871;SDS011;52653;50.080;21.992;2023-02-11T05:53:04;46.30;;;28.90;;
65871;SDS011;52653;50.080;21.992;2023-02-11T05:55:57;46.50;;;28.50;;
65871;SDS011;52653;50.080;21.992;2023-02-11T05:58:50;45.40;;;29.50;;
65871;SDS011;52653;50.080;21.992;2023-02-11T06:01:43;46.40;;;28.70;;
65871;SDS011;52653;50.080;21.992;2023-02-11T06:04:36;46.50;;;29.70;;
65871;SDS011;52653;50.080;21.992;2023-02-11T06:07:28;46.60;;;30.00;;
65871;SDS011;52653;50.080;21.992;2023-02-11T06:10:21;47.00;;;28.80;;
65871;SDS011;52653;50.080;21.992;2023-02-11T06:13:14;44.50;;;27.80;;
65871;SDS011;52653;50.080;21.992;2023-02-11T06:16:08;44.80;;;29.90;;
65871;SDS011;52653;50.080;21.992;2023-02-11T06:19:01;46.50;;;28.40;;
65871;SDS011;52653;50.080;21.992;2023-02-11T06:21:54;46.20;;;28.80;;
65871;SDS011;52653;50.080;21.992;2023-02-11T06:24:47;47.00;;;28.00;;
65871;SDS011;52653;50.080;21.992;2023-02-11T06:27:50;48.20;;;29.20;;
65871;SDS011;52653;50.080;21.992;2023-02-11T06:30:37;46.60;;;28.50;;
65871;SDS011;52653;50.080;21.992;2023-02-11T06:33:29;43.60;;;27.00;;
65871;SDS011;52653;50.080;21.992;2023-02-11T06:36:23;44.60;;;28.80;;
65871;SDS011;52653;50.080;21.992;2023-02-11T06:39:16;46.70;;;29.20;;
65871;SDS011;52653;50.080;21.992;2023-02-11T06:42:02;44.90;;;29.20;;
65871;SDS011;52653;50.080;21.992;2023-02-11T06:44:49;46.90;;;29.70;;
65871;SDS011;52653;50.080;21.992;2023-02-11T06:47:42;47.40;;;29.90;;
65871;SDS011;52653;50.080;21.992;2023-02-11T06:50:35;47.60;;;30.80;;
65871;SDS011;52653;50.080;21.992;2023-02-11T06:53:28;48.20;;;30.30;;
65871;SDS011;52653;50.080;21.992;2023-02-11T06:56:21;46.10;;;29.00;;
65871;SDS011;52653;50.080;21.992;2023-02-11T06:59:07;45.10;;;29.00;;
65871;SDS011;52653;50.080;21.992;2023-02-11T07:02:02;45.90;;;29.40;;
65871;SDS011;52653;50.080;21.992;2023-02-11T07:04:49;47.80;;;31.00;;
65871;SDS011;52653;50.080;21.992;2023-02-11T07:07:45;43.70;;;28.10;;
65871;SDS011;52653;50.080;21.992;2023-02-11T07:10:38;45.90;;;28.30;;
65871;SDS011;52653;50.080;21.992;2023-02-11T07:13:31;42.00;;;27.40;;
65871;SDS011;52653;50.080;21.992;2023-02-11T07:16:16;44.80;;;28.10;;
65871;SDS011;52653;50.080;21.992;2023-02-11T07:19:09;43.80;;;28.80;;
65871;SDS011;52653;50.080;21.992;2023-02-11T07:21:45;53.50;;;31.40;;
65871;SDS011;52653;50.080;21.992;2023-02-11T07:24:18;54.80;;;31.10;;
65871;SDS011;52653;50.080;21.992;2023-02-11T07:27:13;45.70;;;29.00;;
65871;SDS011;52653;50.080;21.992;2023-02-11T07:30:09;44.70;;;28.80;;
65871;SDS011;52653;50.080;21.992;2023-02-11T07:33:05;47.60;;;30.00;;
65871;SDS011;52653;50.080;21.992;2023-02-11T07:36:00;46.20;;;30.80;;
65871;SDS011;52653;50.080;21.992;2023-02-11T07:38:54;49.80;;;31.80;;
65871;SDS011;52653;50.080;21.992;2023-02-11T07:41:40;47.80;;;30.20;;
65871;SDS011;52653;50.080;21.992;2023-02-11T07:44:36;49.40;;;31.20;;
65871;SDS011;52653;50.080;21.992;2023-02-11T07:47:29;48.10;;;31.60;;
65871;SDS011;52653;50.080;21.992;2023-02-11T07:50:14;49.20;;;30.70;;
65871;SDS011;52653;50.080;21.992;2023-02-11T07:53:06;46.30;;;30.30;;
65871;SDS011;52653;50.080;21.992;2023-02-11T07:56:00;48.30;;;29.20;;
65871;SDS011;52653;50.080;21.992;2023-02-11T08:01:40;47.30;;;30.50;;
65871;SDS011;52653;50.080;21.992;2023-02-11T08:04:33;44.00;;;30.50;;
65871;SDS011;52653;50.080;21.992;2023-02-11T08:07:26;44.80;;;31.20;;
65871;SDS011;52653;50.080;21.992;2023-02-11T08:10:22;48.00;;;30.60;;
65871;SDS011;52653;50.080;21.992;2023-02-11T08:13:15;47.00;;;29.90;;
65871;SDS011;52653;50.080;21.992;2023-02-11T08:16:09;46.10;;;29.80;;
65871;SDS011;52653;50.080;21.992;2023-02-11T08:19:11;43.20;;;28.10;;
65871;SDS011;52653;50.080;21.992;2023-02-11T08:22:05;44.30;;;29.30;;
65871;SDS011;52653;50.080;21.992;2023-02-11T08:25:01;43.60;;;29.10;;
65871;SDS011;52653;50.080;21.992;2023-02-11T08:27:53;45.70;;;29.40;;
65871;SDS011;52653;50.080;21.992;2023-02-11T08:30:26;45.50;;;29.50;;
65871;SDS011;52653;50.080;21.992;2023-02-11T08:33:11;45.60;;;30.00;;
65871;SDS011;52653;50.080;21.992;2023-02-11T08:36:08;46.00;;;30.60;;
65871;SDS011;52653;50.080;21.992;2023-02-11T08:42:01;43.40;;;27.60;;
65871;SDS011;52653;50.080;21.992;2023-02-11T08:44:57;43.70;;;28.10;;
65871;SDS011;52653;50.080;21.992;2023-02-11T08:47:43;41.70;;;28.70;;
65871;SDS011;52653;50.080;21.992;2023-02-11T08:50:21;45.00;;;28.70;;
65871;SDS011;52653;50.080;21.992;2023-02-11T08:53:16;45.60;;;31.00;;
65871;SDS011;52653;50.080;21.992;2023-02-11T08:55:49;44.80;;;30.10;;
65871;SDS011;52653;50.080;21.992;2023-02-11T08:58:44;45.20;;;29.40;;
65871;SDS011;52653;50.080;21.992;2023-02-11T09:01:37;45.20;;;30.30;;
65871;SDS011;52653;50.080;21.992;2023-02-11T09:04:32;44.70;;;29.10;;
65871;SDS011;52653;50.080;21.992;2023-02-11T09:07:25;47.70;;;29.20;;
65871;SDS011;52653;50.080;21.992;2023-02-11T09:10:21;43.00;;;27.20;;
65871;SDS011;52653;50.080;21.992;2023-02-11T09:13:14;43.00;;;28.30;;
65871;SDS011;52653;50.080;21.992;2023-02-11T09:16:01;43.10;;;28.90;;
65871;SDS011;52653;50.080;21.992;2023-02-11T09:18:56;42.30;;;28.70;;
65871;SDS011;52653;50.080;21.992;2023-02-11T09:21:49;42.10;;;28.60;;
65871;SDS011;52653;50.080;21.992;2023-02-11T09:24:32;44.30;;;28.80;;
65871;SDS011;52653;50.080;21.992;2023-02-11T09:27:26;44.00;;;29.90;;
65871;SDS011;52653;50.080;21.992;2023-02-11T09:30:20;43.60;;;30.10;;
65871;SDS011;52653;50.080;21.992;2023-02-11T09:33:13;44.80;;;29.70;;
65871;SDS011;52653;50.080;21.992;2023-02-11T09:36:07;42.30;;;29.10;;
65871;SDS011;52653;50.080;21.992;2023-02-11T09:39:00;43.10;;;28.90;;
65871;SDS011;52653;50.080;21.992;2023-02-11T09:42:01;44.60;;;29.20;;
65871;SDS011;52653;50.080;21.992;2023-02-11T09:45:11;45.90;;;29.60;;
65871;SDS011;52653;50.080;21.992;2023-02-11T09:50:35;43.70;;;27.40;;
65871;SDS011;52653;50.080;21.992;2023-02-11T09:53:23;44.10;;;29.20;;
65871;SDS011;52653;50.080;21.992;2023-02-11T09:56:18;45.00;;;30.40;;
65871;SDS011;52653;50.080;21.992;2023-02-11T09:59:12;43.00;;;29.20;;
65871;SDS011;52653;50.080;21.992;2023-02-11T10:02:08;44.60;;;30.40;;
65871;SDS011;52653;50.080;21.992;2023-02-11T10:08:18;45.60;;;29.60;;
65871;SDS011;52653;50.080;21.992;2023-02-11T10:11:18;45.90;;;30.70;;
65871;SDS011;52653;50.080;21.992;2023-02-11T10:14:06;43.60;;;29.10;;
65871;SDS011;52653;50.080;21.992;2023-02-11T10:17:11;40.60;;;27.80;;
65871;SDS011;52653;50.080;21.992;2023-02-11T10:20:16;38.20;;;26.80;;
65871;SDS011;52653;50.080;21.992;2023-02-11T10:23:14;41.00;;;27.50;;
65871;SDS011;52653;50.080;21.992;2023-02-11T10:26:13;42.70;;;29.50;;
65871;SDS011;52653;50.080;21.992;2023-02-11T10:28:52;41.90;;;29.10;;
65871;SDS011;52653;50.080;21.992;2023-02-11T10:31:49;40.50;;;29.00;;
65871;SDS011;52653;50.080;21.992;2023-02-11T10:34:46;43.60;;;28.60;;
65871;SDS011;52653;50.080;21.992;2023-02-11T10:37:40;42.70;;;29.30;;
65871;SDS011;52653;50.080;21.992;2023-02-11T10:40:34;42.60;;;29.20;;
65871;SDS011;52653;50.080;21.992;2023-02-11T10:43:27;46.50;;;30.90;;
65871;SDS011;52653;50.080;21.992;2023-02-11T10:46:25;45.20;;;31.20;;
65871;SDS011;52653;50.080;21.992;2023-02-11T10:49:15;42.50;;;29.20;;
65871;SDS011;52653;50.080;21.992;2023-02-11T10:52:30;44.30;;;30.30;;
65871;SDS011;52653;50.080;21.992;2023-02-11T10:55:24;42.30;;;29.70;;
65871;SDS011;52653;50.080;21.992;2023-02-11T10:58:25;39.90;;;27.90;;
65871;SDS011;52653;50.080;21.992;2023-02-11T11:01:21;41.50;;;27.80;;
65871;SDS011;52653;50.080;21.992;2023-02-11T11:04:38;43.10;;;27.30;;
65871;SDS011;52653;50.080;21.992;2023-02-11T11:07:35;39.20;;;26.80;;
65871;SDS011;52653;50.080;21.992;2023-02-11T11:10:30;38.90;;;27.60;;
65871;SDS011;52653;50.080;21.992;2023-02-11T11:13:34;42.00;;;28.60;;
65871;SDS011;52653;50.080;21.992;2023-02-11T11:16:22;42.60;;;28.30;;
65871;SDS011;52653;50.080;21.992;2023-02-11T11:19:19;41.40;;;28.30;;
65871;SDS011;52653;50.080;21.992;2023-02-11T11:22:19;41.80;;;27.90;;
65871;SDS011;52653;50.080;21.992;2023-02-11T11:25:24;43.10;;;27.50;;
65871;SDS011;52653;50.080;21.992;2023-02-11T11:28:20;39.10;;;26.80;;
65871;SDS011;52653;50.080;21.992;2023-02-11T11:31:16;38.70;;;25.20;;
65871;SDS011;52653;50.080;21.992;2023-02-11T11:34:16;38.30;;;26.30;;
65871;SDS011;52653;50.080;21.992;2023-02-11T11:37:10;38.20;;;27.00;;
65871;SDS011;52653;50.080;21.992;2023-02-11T11:40:21;40.00;;;27.10;;
65871;SDS011;52653;50.080;21.992;2023-02-11T11:43:18;42.20;;;28.10;;
65871;SDS011;52653;50.080;21.992;2023-02-11T11:46:02;40.10;;;26.80;;
65871;SDS011;52653;50.080;21.992;2023-02-11T11:48:46;44.40;;;29.50;;
65871;SDS011;52653;50.080;21.992;2023-02-11T11:51:35;52.90;;;33.10;;
65871;SDS011;52653;50.080;21.992;2023-02-11T11:54:14;46.30;;;31.10;;
65871;SDS011;52653;50.080;21.992;2023-02-11T11:57:15;46.20;;;30.10;;
65871;SDS011;52653;50.080;21.992;2023-02-11T12:03:08;60.00;;;37.30;;
65871;SDS011;52653;50.080;21.992;2023-02-11T12:06:21;50.00;;;32.70;;
65871;SDS011;52653;50.080;21.992;2023-02-11T12:09:25;43.60;;;29.70;;
65871;SDS011;52653;50.080;21.992;2023-02-11T12:12:25;44.80;;;29.50;;
65871;SDS011;52653;50.080;21.992;2023-02-11T12:15:24;44.80;;;28.60;;
65871;SDS011;52653;50.080;21.992;2023-02-11T12:18:19;52.80;;;32.80;;
65871;SDS011;52653;50.080;21.992;2023-02-11T12:21:30;71.80;;;38.10;;
65871;SDS011;52653;50.080;21.992;2023-02-11T12:24:55;52.80;;;32.30;;
65871;SDS011;52653;50.080;21.992;2023-02-11T12:27:55;66.70;;;37.50;;
65871;SDS011;52653;50.080;21.992;2023-02-11T12:31:01;62.70;;;36.60;;
65871;SDS011;52653;50.080;21.992;2023-02-11T12:34:09;56.90;;;34.50;;
65871;SDS011;52653;50.080;21.992;2023-02-11T12:37:20;55.80;;;32.40;;
65871;SDS011;52653;50.080;21.992;2023-02-11T12:40:16;57.10;;;33.30;;
65871;SDS011;52653;50.080;21.992;2023-02-11T12:43:19;52.40;;;31.80;;
65871;SDS011;52653;50.080;21.992;2023-02-11T12:46:19;53.10;;;30.80;;
65871;SDS011;52653;50.080;21.992;2023-02-11T12:49:35;52.00;;;30.90;;
65871;SDS011;52653;50.080;21.992;2023-02-11T12:52:48;51.90;;;30.90;;
65871;SDS011;52653;50.080;21.992;2023-02-11T12:56:09;43.30;;;27.60;;
65871;SDS011;52653;50.080;21.992;2023-02-11T12:59:09;42.70;;;28.00;;
65871;SDS011;52653;50.080;21.992;2023-02-11T13:02:00;42.00;;;28.00;;
65871;SDS011;52653;50.080;21.992;2023-02-11T13:05:04;49.20;;;29.10;;
65871;SDS011;52653;50.080;21.992;2023-02-11T13:08:10;44.00;;;28.40;;
65871;SDS011;52653;50.080;21.992;2023-02-11T13:11:06;50.60;;;30.50;;
65871;SDS011;52653;50.080;21.992;2023-02-11T13:14:05;45.10;;;27.30;;
65871;SDS011;52653;50.080;21.992;2023-02-11T13:17:10;49.10;;;31.00;;
65871;SDS011;52653;50.080;21.992;2023-02-11T13:20:14;47.30;;;30.50;;
65871;SDS011;52653;50.080;21.992;2023-02-11T13:23:12;51.80;;;30.70;;
65871;SDS011;52653;50.080;21.992;2023-02-11T13:26:15;46.80;;;30.80;;
65871;SDS011;52653;50.080;21.992;2023-02-11T13:29:17;45.40;;;31.00;;
65871;SDS011;52653;50.080;21.992;2023-02-11T13:32:14;47.80;;;32.90;;
65871;SDS011;52653;50.080;21.992;2023-02-11T13:35:00;57.00;;;39.30;;
65871;SDS011;52653;50.080;21.992;2023-02-11T13:37:54;52.80;;;37.20;;
65871;SDS011;52653;50.080;21.992;2023-02-11T13:40:56;52.50;;;37.00;;
65871;SDS011;52653;50.080;21.992;2023-02-11T13:44:18;81.80;;;55.30;;
65871;SDS011;52653;50.080;21.992;2023-02-11T13:47:21;48.00;;;32.40;;
65871;SDS011;52653;50.080;21.992;2023-02-11T13:50:33;48.10;;;33.40;;
65871;SDS011;52653;50.080;21.992;2023-02-11T13:53:28;47.40;;;33.70;;
65871;SDS011;52653;50.080;21.992;2023-02-11T13:56:35;52.60;;;34.70;;
65871;SDS011;52653;50.080;21.992;2023-02-11T13:59:46;48.30;;;33.30;;
65871;SDS011;52653;50.080;21.992;2023-02-11T14:02:39;56.40;;;36.50;;
65871;SDS011;52653;50.080;21.992;2023-02-11T14:05:45;52.60;;;34.90;;
65871;SDS011;52653;50.080;21.992;2023-02-11T14:09:33;58.50;;;35.40;;
65871;SDS011;52653;50.080;21.992;2023-02-11T14:12:29;53.10;;;35.60;;
65871;SDS011;52653;50.080;21.992;2023-02-11T14:15:27;54.50;;;34.50;;
65871;SDS011;52653;50.080;21.992;2023-02-11T14:19:00;52.10;;;35.60;;
65871;SDS011;52653;50.080;21.992;2023-02-11T14:21:54;49.80;;;34.20;;
65871;SDS011;52653;50.080;21.992;2023-02-11T14:24:55;53.30;;;35.20;;
65871;SDS011;52653;50.080;21.992;2023-02-11T14:27:52;51.10;;;35.60;;
65871;SDS011;52653;50.080;21.992;2023-02-11T14:30:55;56.90;;;38.30;;
65871;SDS011;52653;50.080;21.992;2023-02-11T14:34:03;57.30;;;37.30;;
65871;SDS011;52653;50.080;21.992;2023-02-11T14:37:19;51.30;;;34.20;;
65871;SDS011;52653;50.080;21.992;2023-02-11T14:40:21;55.10;;;36.50;;
65871;SDS011;52653;50.080;21.992;2023-02-11T14:43:23;53.50;;;34.70;;
65871;SDS011;52653;50.080;21.992;2023-02-11T14:46:21;52.40;;;36.10;;
65871;SDS011;52653;50.080;21.992;2023-02-11T14:49:20;53.40;;;35.90;;
65871;SDS011;52653;50.080;21.992;2023-02-11T14:52:21;57.00;;;39.00;;
65871;SDS011;52653;50.080;21.992;2023-02-11T14:55:21;59.80;;;39.40;;
65871;SDS011;52653;50.080;21.992;2023-02-11T14:58:24;65.20;;;43.30;;
65871;SDS011;52653;50.080;21.992;2023-02-11T15:01:28;70.40;;;44.60;;
65871;SDS011;52653;50.080;21.992;2023-02-11T15:04:24;64.40;;;40.70;;
65871;SDS011;52653;50.080;21.992;2023-02-11T15:07:18;58.20;;;38.70;;
65871;SDS011;52653;50.080;21.992;2023-02-11T15:10:16;58.20;;;38.80;;
65871;SDS011;52653;50.080;21.992;2023-02-11T15:13:15;64.70;;;40.70;;
65871;SDS011;52653;50.080;21.992;2023-02-11T15:16:16;62.90;;;41.00;;
65871;SDS011;52653;50.080;21.992;2023-02-11T15:19:17;58.50;;;38.80;;
65871;SDS011;52653;50.080;21.992;2023-02-11T15:22:17;60.00;;;39.50;;
65871;SDS011;52653;50.080;21.992;2023-02-11T15:25:14;70.50;;;44.70;;
65871;SDS011;52653;50.080;21.992;2023-02-11T15:28:14;63.80;;;42.40;;
65871;SDS011;52653;50.080;21.992;2023-02-11T15:31:15;65.00;;;40.40;;
65871;SDS011;52653;50.080;21.992;2023-02-11T15:34:07;62.30;;;39.80;;
65871;SDS011;52653;50.080;21.992;2023-02-11T15:36:50;58.40;;;38.50;;
65871;SDS011;52653;50.080;21.992;2023-02-11T15:39:43;60.00;;;38.60;;
65871;SDS011;52653;50.080;21.992;2023-02-11T15:42:36;58.50;;;39.20;;
65871;SDS011;52653;50.080;21.992;2023-02-11T15:45:43;62.20;;;41.90;;
65871;SDS011;52653;50.080;21.992;2023-02-11T15:48:35;59.40;;;40.70;;
65871;SDS011;52653;50.080;21.992;2023-02-11T15:51:34;60.50;;;38.80;;
65871;SDS011;52653;50.080;21.992;2023-02-11T15:54:30;59.00;;;39.80;;
65871;SDS011;52653;50.080;21.992;2023-02-11T15:57:23;60.10;;;38.30;;
65871;SDS011;52653;50.080;21.992;2023-02-11T16:00:17;61.00;;;41.80;;
65871;SDS011;52653;50.080;21.992;2023-02-11T16:03:04;65.20;;;42.10;;
65871;SDS011;52653;50.080;21.992;2023-02-11T16:05:58;65.10;;;43.50;;
65871;SDS011;52653;50.080;21.992;2023-02-11T16:09:22;64.80;;;42.30;;
65871;SDS011;52653;50.080;21.992;2023-02-11T16:12:24;67.80;;;43.70;;
65871;SDS011;52653;50.080;21.992;2023-02-11T16:15:36;64.10;;;39.90;;
65871;SDS011;52653;50.080;21.992;2023-02-11T16:18:36;63.10;;;38.90;;
65871;SDS011;52653;50.080;21.992;2023-02-11T16:21:43;64.00;;;41.80;;
65871;SDS011;52653;50.080;21.992;2023-02-11T16:24:37;60.90;;;39.70;;
65871;SDS011;52653;50.080;21.992;2023-02-11T16:27:31;62.50;;;40.30;;
65871;SDS011;52653;50.080;21.992;2023-02-11T16:30:30;61.20;;;39.70;;
65871;SDS011;52653;50.080;21.992;2023-02-11T16:33:27;62.20;;;40.00;;
65871;SDS011;52653;50.080;21.992;2023-02-11T16:36:13;64.20;;;43.10;;
65871;SDS011;52653;50.080;21.992;2023-02-11T16:39:07;58.60;;;39.20;;
65871;SDS011;52653;50.080;21.992;2023-02-11T16:42:00;58.80;;;40.30;;
65871;SDS011;52653;50.080;21.992;2023-02-11T16:44:54;62.10;;;40.70;;
65871;SDS011;52653;50.080;21.992;2023-02-11T16:47:38;72.30;;;45.00;;
65871;SDS011;52653;50.080;21.992;2023-02-11T16:50:33;72.80;;;46.10;;
65871;SDS011;52653;50.080;21.992;2023-02-11T16:53:21;81.40;;;50.40;;
65871;SDS011;52653;50.080;21.992;2023-02-11T16:56:11;91.70;;;51.50;;
65871;SDS011;52653;50.080;21.992;2023-02-11T16:59:08;82.00;;;48.40;;
65871;SDS011;52653;50.080;21.992;2023-02-11T17:01:54;68.80;;;43.30;;
65871;SDS011;52653;50.080;21.992;2023-02-11T17:04:43;69.10;;;42.20;;
65871;SDS011;52653;50.080;21.992;2023-02-11T17:07:36;66.90;;;43.20;;
65871;SDS011;52653;50.080;21.992;2023-02-11T17:10:29;64.90;;;42.20;;
65871;SDS011;52653;50.080;21.992;2023-02-11T17:13:26;63.80;;;41.60;;
65871;SDS011;52653;50.080;21.992;2023-02-11T17:16:20;64.30;;;40.80;;